カシュガル の空港の天気 - METARとTAF

カシュガル空港 ( ZWSH / KHG ) - 中国 新疆ウイグル自治区カシュガル市
飛行場実況気象(Metar)
観測時間10/20 02:00 CST (10/19 18:00 UTC)
風向・風速北西 4m/s
視程10km以上
天気現象
-
気温7℃
湿度24%
気圧1020hPa
METARZWSH 191800Z AUTO 32004MPS 9999 // ////// 07/M12 Q1020
過去の天気等 Google飛行場航空写真 Wunderground天気予報

過去48時間のMETAR

飛行場予報(TAF)
発表時間: 10/19 23:12 CST (10/19 15:12 UTC)
予報対象時間: 20日2時 CST ~ 21日2時 CST
風向・風速北北西 4m/s
視程10km以上
少しの雲 雲底高度 1220m
20日13時 CST ~ 20日14時 CST に徐々に
風向・風速東南東 4m/s
TAF ZWSH 191512Z 1918/2018 33004MPS 9999 FEW040 TX20/2009Z TN03/2000Z
BECMG 2005/2006 12004MPS